createdAt,value
2018-10-18T00:00:45.362Z,22.37
2018-10-18T00:03:16.039Z,19.02
2018-10-18T00:05:43.627Z,21.75
2018-10-18T00:08:12.045Z,22.62
2018-10-18T00:10:39.760Z,22.07
2018-10-18T00:13:07.376Z,20.65
2018-10-18T00:15:35.178Z,18.02
2018-10-18T00:18:03.814Z,22.07
2018-10-18T00:20:32.385Z,19.32
2018-10-18T00:23:00.714Z,21.70
2018-10-18T00:25:28.418Z,20.08
2018-10-18T00:27:56.861Z,20.60
2018-10-18T00:30:24.497Z,20.97
2018-10-18T00:32:52.185Z,25.68
2018-10-18T00:35:20.467Z,18.52
2018-10-18T00:37:48.166Z,22.22
2018-10-18T00:40:20.343Z,19.82
2018-10-18T00:42:48.045Z,18.90
2018-10-18T00:45:15.869Z,19.92
2018-10-18T00:47:43.788Z,20.43
2018-10-18T00:50:12.024Z,22.15
2018-10-18T00:52:41.055Z,25.60
2018-10-18T00:55:10.044Z,20.90
2018-10-18T00:57:38.264Z,24.37
2018-10-18T01:00:07.227Z,18.70
2018-10-18T01:02:35.073Z,17.45
2018-10-18T01:05:02.742Z,19.90
2018-10-18T01:07:35.040Z,19.45
2018-10-18T01:10:02.963Z,23.22
2018-10-18T01:12:31.222Z,19.23
2018-10-18T01:14:59.379Z,19.90
2018-10-18T01:17:28.267Z,19.67
2018-10-18T01:19:56.016Z,21.70
2018-10-18T01:22:23.683Z,21.62
2018-10-18T01:24:52.389Z,20.97
2018-10-18T01:27:20.200Z,22.42
2018-10-18T01:29:48.160Z,22.17
2018-10-18T01:32:15.842Z,20.05
2018-10-18T01:34:43.493Z,21.42
2018-10-18T01:37:11.181Z,21.60
2018-10-18T01:39:38.767Z,20.50
2018-10-18T01:42:06.638Z,24.63
2018-10-18T01:44:34.279Z,18.20
2018-10-18T01:47:01.946Z,21.65
2018-10-18T01:49:29.634Z,23.83
2018-10-18T01:51:57.428Z,24.30
2018-10-18T01:54:26.134Z,21.65
2018-10-18T01:56:53.872Z,21.07
2018-10-18T01:59:22.028Z,23.60
2018-10-18T02:01:50.219Z,22.48
2018-10-18T02:04:17.958Z,18.65
2018-10-18T02:06:45.585Z,19.48
2018-10-18T02:09:13.313Z,27.10
2018-10-18T02:11:41.577Z,29.57
2018-10-18T02:14:09.353Z,21.42
2018-10-18T02:16:37.195Z,23.38
2018-10-18T02:19:05.315Z,20.85
2018-10-18T02:21:32.966Z,21.10
2018-10-18T02:24:00.708Z,21.97
2018-10-18T02:26:28.979Z,25.72
2018-10-18T02:28:56.657Z,26.40
2018-10-18T02:31:24.313Z,23.85
2018-10-18T02:33:52.069Z,23.40
2018-10-18T02:36:20.155Z,25.37
2018-10-18T02:38:47.847Z,24.72
2018-10-18T02:41:15.743Z,26.90
2018-10-18T02:43:43.386Z,24.70
2018-10-18T02:46:11.035Z,24.12
2018-10-18T02:48:38.834Z,22.10
2018-10-18T02:51:06.487Z,22.93
2018-10-18T02:53:38.762Z,21.10
2018-10-18T02:56:07.168Z,22.77
2018-10-18T02:58:36.122Z,25.97
2018-10-18T03:01:04.013Z,26.95
2018-10-18T03:03:31.884Z,23.20
2018-10-18T03:06:00.350Z,21.65
2018-10-18T03:08:28.585Z,24.60
2018-10-18T03:10:56.267Z,24.98
2018-10-18T03:13:23.959Z,24.12
2018-10-18T03:15:51.801Z,23.02
2018-10-18T03:18:19.436Z,23.67
2018-10-18T03:20:47.848Z,23.57
2018-10-18T03:23:15.542Z,23.60
2018-10-18T03:25:43.793Z,23.00
2018-10-18T03:28:12.430Z,21.87
2018-10-18T03:30:40.853Z,23.12
2018-10-18T03:33:09.418Z,22.48
2018-10-18T03:35:38.398Z,23.25
2018-10-18T03:40:37.236Z,25.02
2018-10-18T03:43:10.401Z,23.50
2018-10-18T03:45:42.595Z,24.43
2018-10-18T03:48:10.360Z,23.83
2018-10-18T03:50:38.710Z,25.82
2018-10-18T03:53:06.278Z,28.27
2018-10-18T03:55:38.107Z,28.15
2018-10-18T03:58:06.539Z,38.28
2018-10-18T04:00:34.304Z,31.90
2018-10-18T04:03:02.108Z,31.95
2018-10-18T04:05:29.778Z,32.28
2018-10-18T04:07:58.347Z,30.72
2018-10-18T04:10:26.028Z,28.90
2018-10-18T04:12:53.877Z,34.63
2018-10-18T04:15:21.439Z,27.75
2018-10-18T04:17:49.452Z,31.12
2018-10-18T04:20:17.055Z,25.50
2018-10-18T04:22:46.631Z,28.35
2018-10-18T04:25:14.937Z,92.97
2018-10-18T04:27:43.240Z,49.38
2018-10-18T04:32:12.894Z,36.60
2018-10-18T04:34:40.917Z,29.98
2018-10-18T04:37:09.230Z,27.13
2018-10-18T04:39:37.623Z,31.07
2018-10-18T04:42:05.497Z,28.77
2018-10-18T04:44:33.053Z,26.40
2018-10-18T04:47:00.782Z,33.83
2018-10-18T04:49:28.465Z,29.00
2018-10-18T04:51:56.218Z,28.92
2018-10-18T04:54:24.568Z,25.23
2018-10-18T04:56:52.577Z,27.45
2018-10-18T04:59:21.317Z,28.50
2018-10-18T05:01:49.674Z,26.23
2018-10-18T05:04:17.422Z,28.62
2018-10-18T05:06:45.255Z,27.67
2018-10-18T05:09:12.898Z,25.92
2018-10-18T05:11:41.255Z,26.90
2018-10-18T05:14:09.646Z,28.55
2018-10-18T05:16:37.372Z,25.15
2018-10-18T05:19:05.396Z,28.87
2018-10-18T05:21:33.474Z,28.65
2018-10-18T05:24:01.186Z,27.67
2018-10-18T05:26:29.006Z,26.97
2018-10-18T05:28:56.848Z,27.25
2018-10-18T05:31:25.366Z,29.37
2018-10-18T05:33:53.105Z,30.00
2018-10-18T05:36:22.185Z,33.53
2018-10-18T05:38:49.888Z,30.82
2018-10-18T05:41:17.621Z,29.27
2018-10-18T05:43:47.083Z,30.32
2018-10-18T05:46:14.836Z,26.73
2018-10-18T05:48:43.856Z,29.70
2018-10-18T05:51:12.476Z,28.27
2018-10-18T05:53:42.569Z,29.95
2018-10-18T05:56:10.171Z,32.70
2018-10-18T05:58:38.022Z,28.60
2018-10-18T06:01:05.966Z,28.10
2018-10-18T06:03:33.746Z,27.37
2018-10-18T06:06:01.489Z,25.80
2018-10-18T06:08:29.718Z,28.83
2018-10-18T06:11:08.803Z,32.55
2018-10-18T06:13:36.609Z,26.05
2018-10-18T06:16:04.395Z,26.37
2018-10-18T06:18:32.071Z,25.60
2018-10-18T06:20:59.671Z,60.12
2018-10-18T06:23:27.539Z,44.67
2018-10-18T06:25:59.842Z,34.15
2018-10-18T06:28:27.665Z,32.20
2018-10-18T06:30:55.494Z,33.15
2018-10-18T06:33:23.202Z,31.17
2018-10-18T06:35:50.865Z,27.65
2018-10-18T06:38:18.554Z,28.85
2018-10-18T06:40:50.933Z,26.87
2018-10-18T06:43:18.818Z,29.48
2018-10-18T06:45:47.399Z,31.93
2018-10-18T06:48:15.034Z,32.60
2018-10-18T06:50:42.799Z,28.55
2018-10-18T06:53:10.519Z,26.97
2018-10-18T06:55:38.258Z,25.37
2018-10-18T06:58:06.518Z,28.05
2018-10-18T07:00:34.160Z,28.25
2018-10-18T07:03:02.330Z,26.65
2018-10-18T07:05:30.602Z,28.70
2018-10-18T07:07:58.393Z,25.40
2018-10-18T07:10:26.384Z,27.77
2018-10-18T07:12:54.815Z,29.40
2018-10-18T07:15:23.697Z,29.95
2018-10-18T07:17:51.393Z,29.40
2018-10-18T07:20:19.044Z,34.25
2018-10-18T07:22:46.683Z,30.27
2018-10-18T07:25:15.327Z,28.77
2018-10-18T07:27:43.907Z,31.62
2018-10-18T07:30:13.336Z,27.22
2018-10-18T07:32:41.239Z,26.52
2018-10-18T07:35:10.133Z,27.58
2018-10-18T07:37:42.090Z,29.52
2018-10-18T07:40:12.644Z,35.70
2018-10-18T07:42:42.025Z,28.60
2018-10-18T07:45:10.865Z,29.95
2018-10-18T07:47:39.125Z,28.83
2018-10-18T07:50:07.075Z,28.52
2018-10-18T07:52:35.130Z,28.83
2018-10-18T07:55:03.333Z,40.52
2018-10-18T07:57:31.161Z,33.75
2018-10-18T07:59:59.407Z,31.37
2018-10-18T08:02:26.970Z,27.98
2018-10-18T08:05:02.669Z,36.63
2018-10-18T08:07:30.798Z,33.65
2018-10-18T08:09:58.632Z,30.65
2018-10-18T08:12:26.769Z,33.67
2018-10-18T08:14:54.558Z,32.73
2018-10-18T08:17:23.080Z,33.67
2018-10-18T08:19:50.923Z,34.38
2018-10-18T08:22:18.689Z,34.53
2018-10-18T08:24:46.392Z,28.98
2018-10-18T08:27:14.021Z,35.03
2018-10-18T08:29:41.719Z,36.20
2018-10-18T08:32:09.342Z,32.20
2018-10-18T08:34:37.313Z,29.95
2018-10-18T08:37:05.245Z,41.37
2018-10-18T08:39:32.980Z,35.92
2018-10-18T08:42:01.392Z,30.60
2018-10-18T08:44:29.710Z,31.68
2018-10-18T08:46:57.995Z,37.85
2018-10-18T08:49:25.576Z,39.90
2018-10-18T08:51:53.233Z,36.93
2018-10-18T08:54:20.830Z,29.07
2018-10-18T08:56:48.538Z,32.40
2018-10-18T08:59:16.282Z,33.13
2018-10-18T09:01:48.282Z,33.88
2018-10-18T09:04:21.112Z,35.08
2018-10-18T09:06:48.815Z,33.35
2018-10-18T09:09:16.581Z,39.53
2018-10-18T09:11:46.776Z,33.45
2018-10-18T09:14:14.608Z,34.43
2018-10-18T09:16:42.945Z,32.73
2018-10-18T09:19:11.361Z,37.45
2018-10-18T09:21:38.942Z,49.88
2018-10-18T09:24:06.855Z,35.48
2018-10-18T09:26:34.465Z,38.10
2018-10-18T09:29:02.552Z,32.98
2018-10-18T09:31:30.961Z,32.10
2018-10-18T09:33:59.257Z,34.75
2018-10-18T09:36:26.926Z,41.53
2018-10-18T09:38:54.581Z,40.12
2018-10-18T09:41:22.998Z,32.58
2018-10-18T09:43:55.184Z,33.45
2018-10-18T09:46:22.951Z,33.90
2018-10-18T09:48:50.549Z,32.20
2018-10-18T09:51:18.572Z,31.50
2018-10-18T09:53:46.269Z,33.02
2018-10-18T09:56:13.987Z,33.30
2018-10-18T09:58:42.316Z,36.08
2018-10-18T10:01:15.648Z,30.15
2018-10-18T10:03:43.456Z,32.30
2018-10-18T10:06:12.253Z,35.92
2018-10-18T10:08:39.974Z,39.92
2018-10-18T10:11:07.891Z,30.20
2018-10-18T10:13:35.618Z,31.45
2018-10-18T10:16:03.726Z,33.08
2018-10-18T10:18:32.030Z,39.27
2018-10-18T10:21:04.019Z,34.33
2018-10-18T10:23:31.701Z,33.67
2018-10-18T10:25:59.346Z,32.83
2018-10-18T10:30:54.790Z,34.43
2018-10-18T10:33:23.900Z,32.08
2018-10-18T10:35:51.865Z,33.25
2018-10-18T10:38:20.121Z,34.60
2018-10-18T10:40:47.811Z,33.37
2018-10-18T10:43:15.540Z,33.20
2018-10-18T10:45:43.299Z,33.27
2018-10-18T10:48:15.614Z,35.90
2018-10-18T10:50:43.307Z,31.53
2018-10-18T10:53:11.001Z,36.30
2018-10-18T16:21:41.977Z,28.63
2018-10-18T16:27:08.308Z,28.87
2018-10-18T16:29:36.101Z,23.87
2018-10-18T16:32:04.157Z,22.87
2018-10-18T16:34:32.096Z,26.93
2018-10-18T16:36:59.896Z,25.77
2018-10-18T16:39:27.743Z,25.20
2018-10-18T16:41:58.761Z,29.37
2018-10-18T16:44:26.643Z,29.67
2018-10-18T16:46:56.146Z,29.97
2018-10-18T16:49:24.644Z,31.40
2018-10-18T16:51:52.483Z,29.83
2018-10-18T16:54:21.142Z,28.43
2018-10-18T16:56:50.291Z,31.60
2018-10-18T16:59:17.976Z,28.90
2018-10-18T17:01:45.633Z,31.90
2018-10-18T17:04:13.521Z,28.60
2018-10-18T17:06:41.165Z,26.13
2018-10-18T17:09:09.560Z,30.40
2018-10-18T17:11:38.307Z,31.40
2018-10-18T17:14:05.931Z,33.00
2018-10-18T17:16:33.686Z,29.80
2018-10-18T17:19:01.323Z,27.27
2018-10-18T17:21:29.154Z,30.40
2018-10-18T17:23:56.858Z,35.80
2018-10-18T17:26:24.624Z,29.40
2018-10-18T17:28:52.394Z,28.13
2018-10-18T17:31:20.666Z,26.67
2018-10-18T17:33:49.027Z,29.80
2018-10-18T17:36:17.096Z,28.93
2018-10-18T17:38:44.922Z,28.23
2018-10-18T17:41:12.736Z,26.57
2018-10-18T17:43:40.367Z,34.50
2018-10-18T17:46:08.213Z,26.20
2018-10-18T17:48:36.008Z,29.60
2018-10-18T17:51:04.513Z,33.33
2018-10-18T17:53:33.207Z,31.33
2018-10-18T17:56:01.582Z,30.20
2018-10-18T17:58:35.088Z,28.70
2018-10-18T18:01:04.626Z,27.63
2018-10-18T18:03:32.733Z,28.00
2018-10-18T18:06:00.849Z,29.67
2018-10-18T18:08:28.555Z,27.97
2018-10-18T18:11:00.778Z,34.63
2018-10-18T18:13:28.654Z,29.48
2018-10-18T18:16:01.736Z,29.48
2018-10-18T18:18:29.943Z,29.82
2018-10-18T18:20:57.740Z,30.85
2018-10-18T18:23:25.573Z,29.27
2018-10-18T18:25:53.313Z,34.37
2018-10-18T18:28:21.073Z,26.30
2018-10-18T18:30:49.470Z,28.60
2018-10-18T18:33:17.242Z,27.80
2018-10-18T18:35:45.003Z,31.60
2018-10-18T18:38:12.768Z,31.77
2018-10-18T18:40:40.780Z,33.67
2018-10-18T18:43:08.562Z,30.60
2018-10-18T18:45:36.510Z,34.00
2018-10-18T18:48:04.799Z,35.45
2018-10-18T18:50:33.241Z,31.57
2018-10-18T18:53:01.385Z,32.00
2018-10-18T18:55:29.039Z,28.87
2018-10-18T18:57:57.877Z,34.27
2018-10-18T19:00:25.786Z,33.33
2018-10-18T19:02:53.548Z,32.35
2018-10-18T19:05:21.303Z,34.25
2018-10-18T19:07:49.122Z,39.67
2018-10-18T19:10:17.685Z,33.25
2018-10-18T19:12:45.533Z,32.53
2018-10-18T19:15:13.234Z,35.70
2018-10-18T19:17:40.815Z,32.30
2018-10-18T19:20:09.111Z,30.37
2018-10-18T19:22:36.828Z,32.10
2018-10-18T19:25:05.725Z,32.73
2018-10-18T19:27:34.099Z,35.90
2018-10-18T19:30:02.393Z,32.00
2018-10-18T19:32:30.682Z,29.67
2018-10-18T19:34:58.485Z,40.80
2018-10-18T19:37:26.316Z,35.00
2018-10-18T19:39:53.997Z,38.92
2018-10-18T19:42:21.761Z,35.40
2018-10-18T19:44:49.532Z,33.70
2018-10-18T19:47:17.292Z,37.85
2018-10-18T19:49:44.995Z,34.55
2018-10-18T19:52:12.972Z,36.65
2018-10-18T19:54:40.950Z,35.75
2018-10-18T19:57:08.749Z,32.05
2018-10-18T19:59:36.400Z,36.63
2018-10-18T20:02:04.264Z,32.60
2018-10-18T20:04:31.907Z,37.70
2018-10-18T20:06:59.640Z,38.90
2018-10-18T20:09:27.354Z,34.90
2018-10-18T20:11:54.996Z,32.67
2018-10-18T20:14:22.802Z,35.65
2018-10-18T20:16:50.538Z,39.33
2018-10-18T20:19:18.181Z,32.80
2018-10-18T20:21:45.874Z,33.23
2018-10-18T20:24:13.589Z,38.48
2018-10-18T20:26:41.175Z,31.40
2018-10-18T20:29:08.857Z,32.60
2018-10-18T20:31:37.162Z,36.35
2018-10-18T20:34:05.172Z,37.38
2018-10-18T20:36:32.938Z,34.55
2018-10-18T20:39:00.655Z,35.38
2018-10-18T20:41:28.345Z,35.00
2018-10-18T20:43:56.419Z,34.55
2018-10-18T20:46:24.325Z,36.40
2018-10-18T20:48:52.182Z,34.90
2018-10-18T20:51:19.984Z,36.33
2018-10-18T20:53:47.637Z,41.15
2018-10-18T20:56:15.342Z,37.30
2018-10-18T20:58:42.980Z,37.05
2018-10-18T21:01:10.559Z,39.65
2018-10-18T21:03:38.210Z,35.92
2018-10-18T21:06:05.895Z,30.82
2018-10-18T21:08:33.560Z,26.95
2018-10-18T21:11:01.236Z,33.30
2018-10-18T21:13:28.978Z,36.60
2018-10-18T21:15:56.633Z,37.13
2018-10-18T21:18:24.320Z,36.68
2018-10-18T21:20:52.198Z,39.80
2018-10-18T21:23:19.887Z,39.90
2018-10-18T21:25:47.549Z,40.00
2018-10-18T21:28:15.271Z,41.77
2018-10-18T21:30:42.918Z,41.95
2018-10-18T21:33:10.583Z,44.93
2018-10-18T21:35:38.138Z,48.08
2018-10-18T21:38:06.502Z,42.90
2018-10-18T21:40:34.401Z,39.08
2018-10-18T21:43:02.356Z,45.83
2018-10-18T21:45:30.348Z,49.48
2018-10-18T21:47:58.296Z,46.05
2018-10-18T21:50:25.910Z,45.38
2018-10-18T21:52:53.626Z,43.30
2018-10-18T21:55:21.258Z,39.15
2018-10-18T21:57:48.897Z,50.05
2018-10-18T22:00:16.989Z,51.88
2018-10-18T22:02:46.416Z,46.90
2018-10-18T22:05:14.613Z,50.23
2018-10-18T22:07:42.545Z,44.18
2018-10-18T22:10:10.681Z,45.00
2018-10-18T22:12:38.444Z,46.25
2018-10-18T22:15:07.650Z,45.25
2018-10-18T22:17:35.449Z,44.05
2018-10-18T22:20:03.937Z,43.98
2018-10-18T22:22:31.490Z,46.10
2018-10-18T22:24:59.218Z,50.50
2018-10-18T22:27:27.499Z,43.15
2018-10-18T22:29:55.229Z,50.03
2018-10-18T22:32:22.881Z,48.87
2018-10-18T22:34:50.612Z,50.03
2018-10-18T22:37:18.219Z,46.30
2018-10-18T22:39:45.786Z,44.88
2018-10-18T22:42:13.548Z,45.90
2018-10-18T22:44:41.082Z,47.45
2018-10-18T22:47:08.705Z,45.58
2018-10-18T22:49:36.937Z,47.13
2018-10-18T22:52:04.698Z,50.67
2018-10-18T22:54:32.949Z,53.80
2018-10-18T22:57:00.617Z,47.17
2018-10-18T22:59:28.218Z,53.68
2018-10-18T23:01:55.788Z,58.73
2018-10-18T23:04:23.409Z,54.95
2018-10-18T23:06:51.106Z,50.55
2018-10-18T23:09:18.760Z,55.80
2018-10-18T23:11:46.319Z,52.23
2018-10-18T23:14:13.897Z,57.45
2018-10-18T23:16:42.365Z,52.78
2018-10-18T23:19:10.262Z,52.70
2018-10-18T23:21:37.845Z,51.37
2018-10-18T23:24:06.480Z,51.42
2018-10-18T23:26:34.055Z,51.15
2018-10-18T23:29:01.749Z,50.30
2018-10-18T23:31:29.383Z,45.43
2018-10-18T23:33:57.720Z,52.98
2018-10-18T23:36:25.301Z,48.05
2018-10-18T23:38:52.927Z,52.45
2018-10-18T23:41:20.538Z,46.88
2018-10-18T23:43:48.094Z,52.90
2018-10-18T23:46:15.789Z,49.85
2018-10-18T23:48:43.485Z,51.15
2018-10-18T23:51:11.219Z,54.53
2018-10-18T23:53:39.317Z,46.15
2018-10-18T23:56:06.994Z,45.15
2018-10-18T23:58:34.642Z,47.83
